createdAt,value
2018-01-08T01:37:21.659Z,-3.65
2018-01-08T01:37:22.225Z,-3.67
2018-01-08T01:37:22.830Z,-3.65
2018-01-08T01:37:23.423Z,-3.61
2018-01-08T01:37:24.023Z,-3.62
2018-01-08T01:37:24.666Z,-3.68
2018-01-08T01:37:25.225Z,-3.67
2018-01-08T01:37:25.821Z,-3.70
2018-01-08T01:38:20.304Z,-3.64
2018-01-08T01:38:20.903Z,-3.71
2018-01-08T01:38:21.500Z,-3.70
2018-01-08T01:38:22.100Z,-3.68
2018-01-08T01:38:22.699Z,-3.67
2018-01-08T01:38:23.300Z,-3.57
2018-01-08T01:38:23.898Z,-3.76
2018-01-08T01:38:24.498Z,-3.72
2018-01-08T01:39:18.982Z,-3.72
2018-01-08T01:39:19.577Z,-3.84
2018-01-08T01:39:20.176Z,-3.68
2018-01-08T01:39:20.774Z,-3.68
2018-01-08T01:39:21.374Z,-3.75
2018-01-08T01:39:21.974Z,-3.75
2018-01-08T01:39:22.572Z,-3.71
2018-01-08T01:39:23.172Z,-3.65
2018-01-08T01:40:16.633Z,-3.72
2018-01-08T01:40:17.229Z,-3.75
2018-01-08T01:40:17.828Z,-3.75
2018-01-08T01:40:18.428Z,-3.76
2018-01-08T01:40:19.028Z,-3.68
2018-01-08T01:40:19.628Z,-3.76
2018-01-08T01:40:20.243Z,-3.65
2018-01-08T01:40:20.829Z,-3.65
2018-01-08T01:41:14.285Z,-3.70
2018-01-08T01:41:14.881Z,-3.65
2018-01-08T01:41:15.479Z,-3.64
2018-01-08T01:41:16.081Z,-3.57
2018-01-08T01:41:16.680Z,-3.64
2018-01-08T01:41:17.280Z,-3.67
2018-01-08T01:41:17.881Z,-3.57
2018-01-08T01:41:18.479Z,-3.62
2018-01-08T01:42:12.961Z,-3.62
2018-01-08T01:42:13.557Z,-3.67
2018-01-08T01:42:14.156Z,-3.67
2018-01-08T01:42:14.757Z,-3.65
2018-01-08T01:42:15.356Z,-3.60
2018-01-08T01:42:15.955Z,-3.64
2018-01-08T01:42:16.555Z,-3.62
2018-01-08T01:42:17.155Z,-3.57
2018-01-08T01:43:10.649Z,-3.72
2018-01-08T01:43:11.209Z,-3.67
2018-01-08T01:43:11.809Z,-3.71
2018-01-08T01:43:12.410Z,-3.67
2018-01-08T01:43:13.009Z,-3.64
2018-01-08T01:43:13.608Z,-3.65
2018-01-08T01:43:14.208Z,-3.64
2018-01-08T01:43:14.811Z,-3.71
2018-01-08T01:44:09.289Z,-3.70
2018-01-08T01:44:09.885Z,-3.68
2018-01-08T01:44:10.485Z,-3.56
2018-01-08T01:44:11.084Z,-3.65
2018-01-08T01:44:11.684Z,-3.64
2018-01-08T01:44:12.285Z,-3.67
2018-01-08T01:44:12.883Z,-3.71
2018-01-08T01:44:13.484Z,-3.72
2018-01-08T01:45:07.965Z,-3.64
2018-01-08T01:45:08.563Z,-3.65
2018-01-08T01:45:09.160Z,-3.70
2018-01-08T01:45:09.762Z,-3.65
2018-01-08T01:45:10.360Z,-3.71
2018-01-08T01:45:10.959Z,-3.61
2018-01-08T01:45:11.563Z,-3.60
2018-01-08T01:45:12.160Z,-3.70
2018-01-08T01:46:06.639Z,-3.64
2018-01-08T01:46:07.236Z,-3.61
2018-01-08T01:46:07.836Z,-3.65
2018-01-08T01:46:08.435Z,-3.67
2018-01-08T01:46:09.035Z,-3.71
2018-01-08T01:46:09.635Z,-3.68
2018-01-08T01:46:10.235Z,-3.65
2018-01-08T01:46:10.835Z,-3.54
2018-01-08T01:47:05.315Z,-3.72
2018-01-08T01:47:05.913Z,-3.64
2018-01-08T01:47:06.512Z,-3.65
2018-01-08T01:47:07.112Z,-3.61
2018-01-08T01:47:07.714Z,-3.62
2018-01-08T01:47:08.313Z,-3.67
2018-01-08T01:47:08.911Z,-3.64
2018-01-08T01:47:09.514Z,-3.62
2018-01-08T01:48:03.990Z,-3.57
2018-01-08T01:48:04.588Z,-3.54
2018-01-08T01:48:05.188Z,-3.56
2018-01-08T01:48:05.789Z,-3.54
2018-01-08T01:48:06.390Z,-3.62
2018-01-08T01:48:06.992Z,-3.56
2018-01-08T01:48:07.587Z,-3.60
2018-01-08T01:48:08.189Z,-3.56
2018-01-08T01:49:01.724Z,-3.47
2018-01-08T01:49:02.241Z,-3.61
2018-01-08T01:49:02.840Z,-3.47
2018-01-08T01:49:03.439Z,-3.51
2018-01-08T01:49:04.040Z,-3.54
2018-01-08T01:49:04.643Z,-3.46
2018-01-08T01:49:05.241Z,-3.51
2018-01-08T01:49:05.840Z,-3.53
2018-01-08T01:49:59.296Z,-3.47
2018-01-08T01:49:59.894Z,-3.39
2018-01-08T01:50:00.491Z,-3.46
2018-01-08T01:50:01.094Z,-3.50
2018-01-08T01:50:01.692Z,-3.47
2018-01-08T01:50:02.290Z,-3.53
2018-01-08T01:50:02.891Z,-3.53
2018-01-08T01:50:03.492Z,-3.53
2018-01-08T01:50:56.947Z,-3.47
2018-01-08T01:50:57.545Z,-3.46
2018-01-08T01:50:58.145Z,-3.46
2018-01-08T01:50:58.745Z,-3.43
2018-01-08T01:50:59.344Z,-3.47
2018-01-08T01:50:59.944Z,-3.41
2018-01-08T01:51:00.550Z,-3.46
2018-01-08T01:51:01.143Z,-3.41
2018-01-08T01:51:55.623Z,-3.47
2018-01-08T01:51:56.220Z,-3.49
2018-01-08T01:51:56.819Z,-3.39
2018-01-08T01:51:57.418Z,-3.46
2018-01-08T01:51:58.018Z,-3.44
2018-01-08T01:51:58.621Z,-3.44
2018-01-08T01:51:59.217Z,-3.49
2018-01-08T01:51:59.818Z,-3.46
2018-01-08T01:52:53.276Z,-3.51
2018-01-08T01:52:53.871Z,-3.44
2018-01-08T01:52:54.471Z,-3.53
2018-01-08T01:52:55.073Z,-3.44
2018-01-08T01:52:55.671Z,-3.46
2018-01-08T01:52:56.271Z,-3.46
2018-01-08T01:52:56.872Z,-3.44
2018-01-08T01:52:57.473Z,-3.47
2018-01-08T01:53:51.948Z,-3.51
2018-01-08T01:53:52.547Z,-3.47
2018-01-08T01:53:53.146Z,-3.57
2018-01-08T01:53:53.746Z,-3.49
2018-01-08T01:53:54.346Z,-3.51
2018-01-08T01:53:54.946Z,-3.50
2018-01-08T01:53:55.545Z,-3.47
2018-01-08T01:53:56.144Z,-3.49
2018-01-08T01:54:50.658Z,-3.57
2018-01-08T01:54:51.223Z,-3.50
2018-01-08T01:54:51.821Z,-3.46
2018-01-08T01:54:52.424Z,-3.46
2018-01-08T01:54:53.021Z,-3.44
2018-01-08T01:54:53.621Z,-3.51
2018-01-08T01:54:54.220Z,-3.46
2018-01-08T01:54:54.822Z,-3.46
2018-01-08T01:55:48.282Z,-3.49
2018-01-08T01:55:48.873Z,-3.46
2018-01-08T01:55:49.473Z,-3.46
2018-01-08T01:55:50.074Z,-3.46
2018-01-08T01:55:50.672Z,-3.49
2018-01-08T01:55:51.272Z,-3.47
2018-01-08T01:55:51.875Z,-3.50
2018-01-08T01:55:52.473Z,-3.46
2018-01-08T01:56:46.954Z,-3.46
2018-01-08T01:56:47.550Z,-3.50
2018-01-08T01:56:48.150Z,-3.49
2018-01-08T01:56:48.749Z,-3.39
2018-01-08T01:56:49.350Z,-3.41
2018-01-08T01:56:49.949Z,-3.43
2018-01-08T01:56:50.550Z,-3.50
2018-01-08T01:56:51.151Z,-3.44
2018-01-08T01:57:45.628Z,-3.47
2018-01-08T01:57:46.224Z,-3.41
2018-01-08T01:57:46.824Z,-3.43
2018-01-08T01:57:47.424Z,-3.43
2018-01-08T01:57:48.024Z,-3.44
2018-01-08T01:57:48.624Z,-3.47
2018-01-08T01:57:49.227Z,-3.44
2018-01-08T01:57:49.824Z,-3.50
2018-01-08T01:58:43.281Z,-3.47
2018-01-08T01:58:43.877Z,-3.41
2018-01-08T01:58:44.477Z,-3.44
2018-01-08T01:58:45.076Z,-3.41
2018-01-08T01:58:45.677Z,-3.41
2018-01-08T01:58:46.276Z,-3.43
2018-01-08T01:58:46.876Z,-3.41
2018-01-08T01:58:47.476Z,-3.39
2018-01-08T01:59:41.954Z,-3.44
2018-01-08T01:59:42.553Z,-3.38
2018-01-08T01:59:43.152Z,-3.35
2018-01-08T01:59:43.756Z,-3.36
2018-01-08T01:59:44.352Z,-3.35
2018-01-08T01:59:44.951Z,-3.38
2018-01-08T01:59:45.553Z,-3.41
2018-01-08T01:59:46.155Z,-3.36
2018-01-08T02:00:40.663Z,-3.35
2018-01-08T02:00:41.229Z,-3.35
2018-01-08T02:00:41.828Z,-3.36
2018-01-08T02:00:42.447Z,-3.29
2018-01-08T02:00:43.027Z,-3.35
2018-01-08T02:00:43.628Z,-3.36
2018-01-08T02:00:44.227Z,-3.29
2018-01-08T02:00:44.833Z,-3.31
2018-01-08T02:01:39.307Z,-3.29
2018-01-08T02:01:39.903Z,-3.33
2018-01-08T02:01:40.504Z,-3.31
2018-01-08T02:01:41.104Z,-3.35
2018-01-08T02:01:41.705Z,-3.31
2018-01-08T02:01:42.304Z,-3.35
2018-01-08T02:01:42.903Z,-3.36
2018-01-08T02:01:43.508Z,-3.33
2018-01-08T02:02:36.958Z,-3.28
2018-01-08T02:02:37.556Z,-3.29
2018-01-08T02:02:38.158Z,-3.28
2018-01-08T02:02:38.755Z,-3.32
2018-01-08T02:02:39.355Z,-3.35
2018-01-08T02:02:39.954Z,-3.31
2018-01-08T02:02:40.557Z,-3.35
2018-01-08T02:02:41.155Z,-3.35
2018-01-08T02:03:35.633Z,-3.23
2018-01-08T02:03:36.231Z,-3.35
2018-01-08T02:03:36.831Z,-3.22
2018-01-08T02:03:37.430Z,-3.29
2018-01-08T02:03:38.031Z,-3.23
2018-01-08T02:03:38.629Z,-3.35
2018-01-08T02:03:39.230Z,-3.28
2018-01-08T02:03:39.831Z,-3.25
2018-01-08T02:04:34.311Z,-3.31
2018-01-08T02:04:34.908Z,-3.29
2018-01-08T02:04:35.507Z,-3.32
2018-01-08T02:04:36.107Z,-3.32
2018-01-08T02:04:36.707Z,-3.20
2018-01-08T02:04:37.310Z,-3.23
2018-01-08T02:04:37.905Z,-3.25
2018-01-08T02:04:38.505Z,-3.32
2018-01-08T02:05:31.963Z,-3.25
2018-01-08T02:05:32.558Z,-3.23
2018-01-08T02:05:33.159Z,-3.25
2018-01-08T02:05:33.758Z,-3.18
2018-01-08T02:05:34.361Z,-3.22
2018-01-08T02:05:34.959Z,-3.25
2018-01-08T02:05:35.558Z,-3.31
2018-01-08T02:05:36.158Z,-3.20
2018-01-08T02:06:29.644Z,-3.28
2018-01-08T02:06:30.212Z,-3.25
2018-01-08T02:06:30.810Z,-3.18
2018-01-08T02:06:31.410Z,-3.15
2018-01-08T02:06:32.012Z,-3.23
2018-01-08T02:06:32.611Z,-3.23
2018-01-08T02:06:33.209Z,-3.17
2018-01-08T02:06:33.810Z,-3.22
2018-01-08T02:07:27.267Z,-3.18
2018-01-08T02:07:27.862Z,-3.31
2018-01-08T02:07:28.461Z,-3.17
2018-01-08T02:07:29.061Z,-3.20
2018-01-08T02:07:29.664Z,-3.25
2018-01-08T02:07:30.262Z,-3.20
2018-01-08T02:07:30.862Z,-3.22
2018-01-08T02:07:31.462Z,-3.20
2018-01-08T02:08:25.940Z,-3.29
2018-01-08T02:08:26.543Z,-3.22
2018-01-08T02:08:27.140Z,-3.20
2018-01-08T02:08:27.736Z,-3.14
2018-01-08T02:08:28.338Z,-3.25
2018-01-08T02:08:28.954Z,-3.11
2018-01-08T02:08:29.535Z,-3.28
2018-01-08T02:08:30.135Z,-3.22
2018-01-08T02:09:23.594Z,-3.14
2018-01-08T02:09:24.190Z,-3.13
2018-01-08T02:09:24.789Z,-3.13
2018-01-08T02:09:25.390Z,-3.13
2018-01-08T02:09:25.988Z,-3.13
2018-01-08T02:09:26.588Z,-3.14
2018-01-08T02:09:27.188Z,-3.14
2018-01-08T02:09:27.787Z,-3.11
2018-01-08T02:10:22.269Z,-3.07
2018-01-08T02:10:22.864Z,-3.05
2018-01-08T02:10:23.465Z,-3.13
2018-01-08T02:10:24.064Z,-3.14
2018-01-08T02:10:24.669Z,-3.08
2018-01-08T02:10:25.265Z,-3.15
2018-01-08T02:10:25.865Z,-3.05
2018-01-08T02:10:26.466Z,-3.05
2018-01-08T02:11:19.921Z,-3.13
2018-01-08T02:11:20.517Z,-3.00
2018-01-08T02:11:21.119Z,-3.02
2018-01-08T02:11:21.717Z,-3.17
2018-01-08T02:11:22.317Z,-3.10
2018-01-08T02:11:22.918Z,-3.13
2018-01-08T02:11:23.517Z,-3.15
2018-01-08T02:11:24.117Z,-3.14
2018-01-08T02:12:17.607Z,-3.04
2018-01-08T02:12:18.170Z,-3.08
2018-01-08T02:12:18.768Z,-3.08
2018-01-08T02:12:19.367Z,-3.11
2018-01-08T02:12:19.982Z,-3.08
2018-01-08T02:12:20.568Z,-3.11
2018-01-08T02:12:21.168Z,-3.05
2018-01-08T02:12:21.772Z,-3.13
2018-01-08T02:13:16.248Z,-3.07
2018-01-08T02:13:16.844Z,-3.07
2018-01-08T02:13:17.444Z,-3.05
2018-01-08T02:13:18.047Z,-3.05
2018-01-08T02:13:18.643Z,-3.08
2018-01-08T02:13:19.243Z,-3.04
2018-01-08T02:13:19.842Z,-3.07
2018-01-08T02:13:20.443Z,-3.05
2018-01-08T02:14:13.900Z,-3.02
2018-01-08T02:14:14.495Z,-3.08
2018-01-08T02:14:15.115Z,-3.05
2018-01-08T02:14:15.695Z,-3.07
2018-01-08T02:14:16.296Z,-3.04
2018-01-08T02:14:16.896Z,-3.07
2018-01-08T02:14:17.495Z,-3.05
2018-01-08T02:14:18.094Z,-3.02
2018-01-08T02:15:12.577Z,-3.05
2018-01-08T02:15:13.176Z,-3.11
2018-01-08T02:15:13.771Z,-3.05
2018-01-08T02:15:14.371Z,-3.04
2018-01-08T02:15:14.977Z,-3.08
2018-01-08T02:15:15.570Z,-3.08
2018-01-08T02:15:16.170Z,-3.05
2018-01-08T02:15:16.770Z,-3.02
2018-01-08T02:16:11.311Z,-3.02
2018-01-08T02:16:11.847Z,-3.04
2018-01-08T02:16:12.448Z,-3.07
2018-01-08T02:16:13.046Z,-3.07
2018-01-08T02:16:13.645Z,-3.07
2018-01-08T02:16:14.245Z,-3.04
2018-01-08T02:16:14.846Z,-3.05
2018-01-08T02:16:15.448Z,-3.02
2018-01-08T02:17:08.903Z,-3.02
2018-01-08T02:17:09.501Z,-2.97
2018-01-08T02:17:10.100Z,-2.97
2018-01-08T02:17:10.699Z,-3.04
2018-01-08T02:17:11.299Z,-3.00
2018-01-08T02:17:11.900Z,-3.08
2018-01-08T02:17:12.499Z,-3.07
2018-01-08T02:17:13.103Z,-3.05
2018-01-08T02:18:06.587Z,-3.07
2018-01-08T02:18:07.150Z,-3.05
2018-01-08T02:18:07.751Z,-2.94
2018-01-08T02:18:08.375Z,-2.96
2018-01-08T02:18:08.951Z,-2.97
2018-01-08T02:18:09.549Z,-3.05
2018-01-08T02:18:10.150Z,-3.00
2018-01-08T02:18:10.750Z,-3.02
2018-01-08T02:19:05.229Z,-3.04
2018-01-08T02:19:05.883Z,-2.92
2018-01-08T02:19:06.426Z,-3.04
2018-01-08T02:19:07.026Z,-3.07
2018-01-08T02:19:07.625Z,-2.96
2018-01-08T02:19:08.224Z,-2.96
2018-01-08T02:19:08.825Z,-2.93
2018-01-08T02:19:09.425Z,-3.02
2018-01-08T02:20:03.907Z,-2.99
2018-01-08T02:20:04.502Z,-2.94
2018-01-08T02:20:05.101Z,-2.99
2018-01-08T02:20:05.701Z,-2.92
2018-01-08T02:20:06.302Z,-2.93
2018-01-08T02:20:06.902Z,-2.97
2018-01-08T02:20:07.500Z,-2.92
2018-01-08T02:20:08.101Z,-2.94
2018-01-08T02:21:02.582Z,-2.99
2018-01-08T02:21:03.176Z,-2.92
2018-01-08T02:21:03.778Z,-2.92
2018-01-08T02:21:04.377Z,-2.93
2018-01-08T02:21:04.976Z,-2.86
2018-01-08T02:21:05.576Z,-2.86
2018-01-08T02:21:06.175Z,-2.92
2018-01-08T02:21:06.776Z,-2.86
2018-01-08T02:22:01.258Z,-2.89
2018-01-08T02:22:01.852Z,-2.90
2018-01-08T02:22:02.453Z,-2.93
2018-01-08T02:22:03.054Z,-2.89
2018-01-08T02:22:03.653Z,-2.96
2018-01-08T02:22:04.252Z,-2.92
2018-01-08T02:22:04.852Z,-2.93
2018-01-08T02:22:05.454Z,-2.90
2018-01-08T02:22:59.932Z,-2.87
2018-01-08T02:23:00.533Z,-2.85
2018-01-08T02:23:01.128Z,-2.92
2018-01-08T02:23:01.728Z,-2.87
2018-01-08T02:23:02.328Z,-2.86
2018-01-08T02:23:02.926Z,-2.87
2018-01-08T02:23:03.528Z,-2.86
2018-01-08T02:23:04.128Z,-2.93
2018-01-08T02:23:58.701Z,-2.87
2018-01-08T02:23:59.205Z,-2.86
2018-01-08T02:23:59.803Z,-2.93
2018-01-08T02:24:00.404Z,-2.89
2018-01-08T02:24:01.005Z,-2.79
2018-01-08T02:24:01.606Z,-2.93
2018-01-08T02:24:02.202Z,-2.82
2018-01-08T02:24:02.804Z,-2.85
2018-01-08T02:24:58.820Z,-2.94
2018-01-08T02:24:59.416Z,-2.94
2018-01-08T02:25:00.017Z,-2.86
2018-01-08T02:25:00.615Z,-2.89
2018-01-08T02:25:01.214Z,-2.85
2018-01-08T02:25:01.817Z,-2.85
2018-01-08T02:25:56.779Z,-2.94
2018-01-08T02:25:57.376Z,-2.93
2018-01-08T02:25:57.975Z,-2.89
2018-01-08T02:25:58.574Z,-2.93
2018-01-08T02:25:59.175Z,-2.89
2018-01-08T02:25:59.774Z,-2.90
2018-01-08T02:26:00.373Z,-2.92
2018-01-08T02:26:00.974Z,-2.89
2018-01-08T02:26:54.940Z,-2.96
2018-01-08T02:26:55.538Z,-2.89
2018-01-08T02:26:56.139Z,-2.90
2018-01-08T02:26:56.739Z,-2.93
2018-01-08T02:26:57.337Z,-2.92
2018-01-08T02:26:57.937Z,-2.97
2018-01-08T02:26:58.538Z,-2.89
2018-01-08T02:27:51.980Z,-2.92
2018-01-08T02:27:52.577Z,-2.94
2018-01-08T02:27:53.180Z,-2.94
2018-01-08T02:27:53.776Z,-2.96
2018-01-08T02:27:54.376Z,-2.94
2018-01-08T02:27:54.975Z,-2.86
2018-01-08T02:27:55.576Z,-2.94
2018-01-08T02:27:56.177Z,-2.89
2018-01-08T02:28:50.151Z,-2.85
2018-01-08T02:28:50.740Z,-2.87
2018-01-08T02:28:51.338Z,-2.82
2018-01-08T02:28:51.939Z,-2.89
2018-01-08T02:28:52.538Z,-2.92
2018-01-08T02:28:53.138Z,-2.96
2018-01-08T02:28:53.738Z,-2.89
2018-01-08T02:29:48.238Z,-2.93
2018-01-08T02:29:48.800Z,-2.90
2018-01-08T02:29:49.400Z,-2.86
2018-01-08T02:29:50.010Z,-2.92
2018-01-08T02:29:50.599Z,-2.85
2018-01-08T02:29:51.200Z,-2.81
2018-01-08T02:29:51.799Z,-2.94
2018-01-08T02:29:52.402Z,-2.94
2018-01-08T02:30:47.392Z,-2.90
2018-01-08T02:30:47.987Z,-2.93
2018-01-08T02:30:48.588Z,-2.94
2018-01-08T02:30:49.187Z,-2.90
2018-01-08T02:30:49.792Z,-2.93
2018-01-08T02:30:50.388Z,-2.92
2018-01-08T02:30:50.986Z,-2.87
2018-01-08T02:31:45.458Z,-2.93
2018-01-08T02:31:46.049Z,-2.93
2018-01-08T02:31:46.648Z,-2.94
2018-01-08T02:31:47.252Z,-2.93
2018-01-08T02:31:47.848Z,-2.92
2018-01-08T02:31:48.450Z,-2.96
2018-01-08T02:31:49.048Z,-2.94
2018-01-08T02:31:49.651Z,-2.90
2018-01-08T02:32:43.104Z,-2.93
2018-01-08T02:32:43.702Z,-2.99
2018-01-08T02:32:44.302Z,-2.92
2018-01-08T02:32:44.902Z,-2.92
2018-01-08T02:32:45.502Z,-2.90
2018-01-08T02:32:46.105Z,-3.00
2018-01-08T02:32:46.701Z,-2.96
2018-01-08T02:32:47.302Z,-2.92
2018-01-08T02:33:40.757Z,-2.99
2018-01-08T02:33:41.353Z,-2.94
2018-01-08T02:33:41.953Z,-2.97
2018-01-08T02:33:42.554Z,-3.02
2018-01-08T02:33:43.152Z,-2.97
2018-01-08T02:33:43.755Z,-2.89
2018-01-08T02:33:44.366Z,-2.96
2018-01-08T02:33:44.954Z,-2.93
2018-01-08T02:51:45.314Z,-3.43
2018-01-08T02:51:45.877Z,-3.39
2018-01-08T02:51:46.475Z,-3.47
2018-01-08T02:51:47.075Z,-3.41
2018-01-08T02:51:47.676Z,-3.47
2018-01-08T02:51:48.275Z,-3.41
2018-01-08T02:51:48.875Z,-3.41
2018-01-08T02:51:49.475Z,-3.39
2018-01-08T02:52:42.932Z,-3.51
2018-01-08T02:52:43.528Z,-3.49
2018-01-08T02:52:44.127Z,-3.49
2018-01-08T02:52:44.781Z,-3.49
2018-01-08T02:52:45.326Z,-3.49
2018-01-08T02:52:45.927Z,-3.51
2018-01-08T02:52:46.528Z,-3.46
2018-01-08T02:52:47.124Z,-3.53
2018-01-08T02:53:41.606Z,-3.44
2018-01-08T02:53:42.204Z,-3.51
2018-01-08T02:53:42.803Z,-3.53
2018-01-08T02:53:43.403Z,-3.44
2018-01-08T02:53:44.011Z,-3.50
2018-01-08T02:53:44.602Z,-3.51
2018-01-08T02:53:45.202Z,-3.49
2018-01-08T02:53:45.803Z,-3.56
2018-01-08T02:54:40.283Z,-3.64
2018-01-08T02:54:40.888Z,-3.56
2018-01-08T02:54:41.478Z,-3.46
2018-01-08T02:54:42.079Z,-3.57
2018-01-08T02:54:42.678Z,-3.57
2018-01-08T02:54:43.279Z,-3.53
2018-01-08T02:54:43.878Z,-3.57
2018-01-08T02:54:44.478Z,-3.56
2018-01-08T02:55:38.959Z,-3.60
2018-01-08T02:55:39.556Z,-3.67
2018-01-08T02:55:40.156Z,-3.65
2018-01-08T02:55:40.754Z,-3.62
2018-01-08T02:55:41.356Z,-3.65
2018-01-08T02:55:41.955Z,-3.60
2018-01-08T02:55:42.556Z,-3.50
2018-01-08T02:55:43.153Z,-3.62
2018-01-08T02:56:37.638Z,-3.64
2018-01-08T02:56:38.232Z,-3.68
2018-01-08T02:56:38.831Z,-3.65
2018-01-08T02:56:39.433Z,-3.64
2018-01-08T02:56:40.032Z,-3.64
2018-01-08T02:56:40.631Z,-3.64
2018-01-08T02:56:41.231Z,-3.61
2018-01-08T02:56:41.830Z,-3.61
2018-01-08T02:57:35.320Z,-3.70
2018-01-08T02:57:35.883Z,-3.67
2018-01-08T02:57:36.484Z,-3.62
2018-01-08T02:57:37.083Z,-3.72
2018-01-08T02:57:37.683Z,-3.65
2018-01-08T02:57:38.284Z,-3.67
2018-01-08T02:57:38.883Z,-3.68
2018-01-08T02:57:39.483Z,-3.68
2018-01-08T02:58:32.938Z,-3.67
2018-01-08T02:58:33.537Z,-3.61
2018-01-08T02:58:34.138Z,-3.71
2018-01-08T02:58:34.737Z,-3.67
2018-01-08T02:58:35.335Z,-3.64
2018-01-08T02:58:35.937Z,-3.67
2018-01-08T02:58:36.536Z,-3.62
2018-01-08T02:58:37.134Z,-3.62
2018-01-08T02:59:32.127Z,-3.67
2018-01-08T02:59:32.724Z,-3.70
2018-01-08T02:59:33.324Z,-3.71
2018-01-08T02:59:33.922Z,-3.62
2018-01-08T02:59:34.522Z,-3.65
2018-01-08T02:59:35.122Z,-3.64
2018-01-08T02:59:35.721Z,-3.62
2018-01-08T03:00:30.187Z,-3.70
2018-01-08T03:00:30.785Z,-3.64
2018-01-08T03:00:31.384Z,-3.60
2018-01-08T03:00:31.984Z,-3.70
2018-01-08T03:00:32.584Z,-3.68
2018-01-08T03:00:33.184Z,-3.65
2018-01-08T03:00:33.783Z,-3.68
2018-01-08T03:00:34.383Z,-3.64
2018-01-08T03:01:28.863Z,-3.68
2018-01-08T03:01:29.460Z,-3.70
2018-01-08T03:01:30.059Z,-3.67
2018-01-08T03:01:30.659Z,-3.64
2018-01-08T03:01:31.260Z,-3.71
2018-01-08T03:01:31.859Z,-3.65
2018-01-08T03:01:32.459Z,-3.64
2018-01-08T03:01:33.059Z,-3.64
2018-01-08T03:02:27.538Z,-3.68
2018-01-08T03:02:28.135Z,-3.61
2018-01-08T03:02:28.738Z,-3.70
2018-01-08T03:02:29.335Z,-3.68
2018-01-08T03:02:29.935Z,-3.71
2018-01-08T03:02:30.535Z,-3.71
2018-01-08T03:02:31.134Z,-3.64
2018-01-08T03:02:31.733Z,-3.68
2018-01-08T03:03:25.224Z,-3.70
2018-01-08T03:03:25.789Z,-3.68
2018-01-08T03:03:26.388Z,-3.68
2018-01-08T03:03:26.987Z,-3.64
2018-01-08T03:03:27.588Z,-3.68
2018-01-08T03:03:28.188Z,-3.68
2018-01-08T03:03:28.787Z,-3.56
2018-01-08T03:03:29.386Z,-3.64
2018-01-08T03:04:22.844Z,-3.68
2018-01-08T03:04:23.440Z,-3.62
2018-01-08T03:04:24.040Z,-3.67
2018-01-08T03:04:24.639Z,-3.61
2018-01-08T03:04:25.239Z,-3.67
2018-01-08T03:04:25.839Z,-3.65
2018-01-08T03:04:26.439Z,-3.67
2018-01-08T03:04:27.045Z,-3.67
2018-01-08T03:05:21.517Z,-3.61
2018-01-08T03:05:22.115Z,-3.71
2018-01-08T03:05:22.715Z,-3.64
2018-01-08T03:05:23.315Z,-3.64
2018-01-08T03:05:23.914Z,-3.71
2018-01-08T03:05:24.514Z,-3.60
2018-01-08T03:05:25.114Z,-3.64
2018-01-08T03:05:25.712Z,-3.67
2018-01-08T03:06:19.173Z,-3.67
2018-01-08T03:06:19.769Z,-3.67
2018-01-08T03:06:20.368Z,-3.67
2018-01-08T03:06:20.967Z,-3.61
2018-01-08T03:06:21.567Z,-3.65
2018-01-08T03:06:22.166Z,-3.61
2018-01-08T03:06:22.766Z,-3.61
2018-01-08T03:06:23.367Z,-3.64
2018-01-08T03:07:16.822Z,-3.67
2018-01-08T03:07:17.420Z,-3.67
2018-01-08T03:07:18.020Z,-3.56
2018-01-08T03:07:18.619Z,-3.57
2018-01-08T03:07:19.219Z,-3.61
2018-01-08T03:07:19.819Z,-3.64
2018-01-08T03:07:20.420Z,-3.60
2018-01-08T03:07:21.020Z,-3.56
2018-01-08T03:08:14.475Z,-3.56
2018-01-08T03:08:15.072Z,-3.51
2018-01-08T03:08:15.671Z,-3.64
2018-01-08T03:08:16.271Z,-3.60
2018-01-08T03:08:16.870Z,-3.57
2018-01-08T03:08:17.469Z,-3.54
2018-01-08T03:08:18.071Z,-3.57
2018-01-08T03:08:18.670Z,-3.53
2018-01-08T03:09:12.160Z,-3.53
2018-01-08T03:09:12.730Z,-3.53
2018-01-08T03:09:13.322Z,-3.51
2018-01-08T03:09:13.921Z,-3.60
2018-01-08T03:09:14.522Z,-3.53
2018-01-08T03:09:15.123Z,-3.53
2018-01-08T03:09:15.722Z,-3.50
2018-01-08T03:09:16.322Z,-3.56
2018-01-08T03:10:10.801Z,-3.51
2018-01-08T03:10:11.397Z,-3.50
2018-01-08T03:10:11.997Z,-3.49
2018-01-08T03:10:12.598Z,-3.50
2018-01-08T03:10:13.197Z,-3.53
2018-01-08T03:10:13.797Z,-3.53
2018-01-08T03:10:14.398Z,-3.49
2018-01-08T03:10:15.008Z,-3.51
2018-01-08T03:11:09.476Z,-3.47
2018-01-08T03:11:10.073Z,-3.46
2018-01-08T03:11:10.674Z,-3.49
2018-01-08T03:11:11.273Z,-3.49
2018-01-08T03:11:11.872Z,-3.47
2018-01-08T03:11:12.473Z,-3.46
2018-01-08T03:11:13.073Z,-3.46
2018-01-08T03:11:13.673Z,-3.47
2018-01-08T03:12:07.128Z,-3.49
2018-01-08T03:12:07.726Z,-3.54
2018-01-08T03:12:08.325Z,-3.47
2018-01-08T03:12:08.924Z,-3.44
2018-01-08T03:12:09.526Z,-3.49
2018-01-08T03:12:10.125Z,-3.49
2018-01-08T03:12:10.728Z,-3.50
2018-01-08T03:12:11.323Z,-3.44
2018-01-08T03:13:04.782Z,-3.41
2018-01-08T03:13:05.377Z,-3.46
2018-01-08T03:13:05.977Z,-3.38
2018-01-08T03:13:06.577Z,-3.41
2018-01-08T03:13:07.177Z,-3.47
2018-01-08T03:13:07.775Z,-3.47
2018-01-08T03:13:08.376Z,-3.49
2018-01-08T03:13:08.976Z,-3.41
2018-01-08T03:14:02.474Z,-3.41
2018-01-08T03:14:03.030Z,-3.35
2018-01-08T03:14:03.629Z,-3.29
2018-01-08T03:14:04.230Z,-3.31
2018-01-08T03:14:04.828Z,-3.33
2018-01-08T03:14:05.428Z,-3.33
2018-01-08T03:14:06.029Z,-3.29
2018-01-08T03:14:06.633Z,-3.33
2018-01-08T03:15:01.135Z,-3.39
2018-01-08T03:15:01.704Z,-3.28
2018-01-08T03:15:02.303Z,-3.35
2018-01-08T03:15:02.901Z,-3.36
2018-01-08T03:15:03.501Z,-3.29
2018-01-08T03:15:04.110Z,-3.35
2018-01-08T03:15:04.702Z,-3.32
2018-01-08T03:15:05.301Z,-3.35
2018-01-08T03:15:59.782Z,-3.25
2018-01-08T03:16:00.380Z,-3.26
2018-01-08T03:16:00.978Z,-3.25
2018-01-08T03:16:01.579Z,-3.28
2018-01-08T03:16:02.179Z,-3.32
2018-01-08T03:16:02.778Z,-3.26
2018-01-08T03:16:03.378Z,-3.23
2018-01-08T03:16:03.980Z,-3.25
2018-01-08T03:16:58.458Z,-3.25
2018-01-08T03:16:59.056Z,-3.29
2018-01-08T03:16:59.655Z,-3.26
2018-01-08T03:17:00.254Z,-3.33
2018-01-08T03:17:00.861Z,-3.33
2018-01-08T03:17:01.455Z,-3.25
2018-01-08T03:17:02.055Z,-3.31
2018-01-08T03:17:02.655Z,-3.20
2018-01-08T03:17:56.112Z,-3.33
2018-01-08T03:17:56.709Z,-3.28
2018-01-08T03:17:57.308Z,-3.28
2018-01-08T03:17:57.908Z,-3.23
2018-01-08T03:17:58.509Z,-3.28
2018-01-08T03:17:59.107Z,-3.28
2018-01-08T03:17:59.710Z,-3.25
2018-01-08T03:18:00.307Z,-3.25
2018-01-08T03:18:54.786Z,-3.31
2018-01-08T03:18:55.383Z,-3.32
2018-01-08T03:18:55.984Z,-3.35
2018-01-08T03:18:56.583Z,-3.25
2018-01-08T03:18:57.182Z,-3.35
2018-01-08T03:18:57.784Z,-3.32
2018-01-08T03:18:58.381Z,-3.26
2018-01-08T03:18:58.982Z,-3.31
2018-01-08T03:19:53.494Z,-3.32
2018-01-08T03:19:54.061Z,-3.32
2018-01-08T03:19:54.657Z,-3.31
2018-01-08T03:19:55.258Z,-3.36
2018-01-08T03:19:55.859Z,-3.33
2018-01-08T03:19:56.457Z,-3.29
2018-01-08T03:19:57.056Z,-3.31
2018-01-08T03:19:57.658Z,-3.26
2018-01-08T03:20:51.112Z,-3.28
2018-01-08T03:20:51.711Z,-3.35
2018-01-08T03:20:52.311Z,-3.36
2018-01-08T03:20:52.912Z,-3.38
2018-01-08T03:20:53.511Z,-3.38
2018-01-08T03:20:54.110Z,-3.29
2018-01-08T03:20:54.710Z,-3.32
2018-01-08T03:20:55.313Z,-3.29
2018-01-08T03:21:49.789Z,-3.26
2018-01-08T03:21:50.387Z,-3.33
2018-01-08T03:21:50.985Z,-3.31
2018-01-08T03:21:51.587Z,-3.31
2018-01-08T03:21:52.184Z,-3.26
2018-01-08T03:21:52.786Z,-3.33
2018-01-08T03:21:53.384Z,-3.38
2018-01-08T03:21:53.985Z,-3.35
2018-01-08T03:22:48.464Z,-3.41
2018-01-08T03:22:49.062Z,-3.25
2018-01-08T03:22:49.660Z,-3.32
2018-01-08T03:22:50.261Z,-3.35
2018-01-08T03:22:50.860Z,-3.20
2018-01-08T03:22:51.459Z,-3.31
2018-01-08T03:22:52.066Z,-3.25
2018-01-08T03:22:52.662Z,-3.25
2018-01-08T03:23:47.141Z,-3.31
2018-01-08T03:23:47.736Z,-3.23
2018-01-08T03:23:48.337Z,-3.32
2018-01-08T03:23:48.936Z,-3.32
2018-01-08T03:23:49.540Z,-3.29
2018-01-08T03:23:50.139Z,-3.33
2018-01-08T03:23:50.735Z,-3.26
2018-01-08T03:23:51.336Z,-3.29
2018-01-08T03:24:44.795Z,-3.25
2018-01-08T03:24:45.390Z,-3.10
2018-01-08T03:24:45.990Z,-3.20
2018-01-08T03:24:46.588Z,-3.32
2018-01-08T03:24:47.189Z,-3.15
2018-01-08T03:24:47.788Z,-3.29
2018-01-08T03:24:48.388Z,-3.23
2018-01-08T03:24:48.988Z,-3.17
2018-01-08T03:25:42.476Z,-3.32
2018-01-08T03:25:43.041Z,-3.28
2018-01-08T03:25:43.640Z,-3.18
2018-01-08T03:25:44.241Z,-3.31
2018-01-08T03:25:44.840Z,-3.17
2018-01-08T03:25:45.443Z,-3.13
2018-01-08T03:25:46.041Z,-3.17
2018-01-08T03:25:46.640Z,-3.23
2018-01-08T03:26:41.119Z,-3.28
2018-01-08T03:26:41.716Z,-3.23
2018-01-08T03:26:42.317Z,-3.23
2018-01-08T03:26:42.915Z,-3.18
2018-01-08T03:26:43.516Z,-3.29
2018-01-08T03:26:44.115Z,-3.22
2018-01-08T03:26:44.715Z,-3.22
2018-01-08T03:26:45.317Z,-3.23
2018-01-08T03:27:39.795Z,-3.26
2018-01-08T03:27:40.392Z,-3.14
2018-01-08T03:27:40.991Z,-3.20
2018-01-08T03:27:41.596Z,-3.26
2018-01-08T03:27:42.191Z,-3.11
2018-01-08T03:27:42.790Z,-3.17
2018-01-08T03:27:43.393Z,-3.17
2018-01-08T03:27:43.991Z,-3.14
2018-01-08T03:28:37.446Z,-3.25
2018-01-08T03:28:38.047Z,-3.29
2018-01-08T03:28:38.647Z,-3.23